createdAt,value
2017-09-01T00:00:25.543Z,81.61
2017-09-01T00:02:53.156Z,82.21
2017-09-01T00:05:20.773Z,81.64
2017-09-01T00:07:48.384Z,81.11
2017-09-01T00:10:15.978Z,81.25
2017-09-01T00:12:43.635Z,81.66
2017-09-01T00:15:11.214Z,81.15
2017-09-01T00:17:38.842Z,81.28
2017-09-01T00:20:06.452Z,81.62
2017-09-01T00:22:34.099Z,81.82
2017-09-01T00:25:01.710Z,81.31
2017-09-01T00:27:29.319Z,81.07
2017-09-01T00:29:56.996Z,80.51
2017-09-01T00:32:24.631Z,81.09
2017-09-01T00:34:52.245Z,80.51
2017-09-01T00:37:19.908Z,81.19
2017-09-01T00:39:47.490Z,81.38
2017-09-01T00:42:15.087Z,81.12
2017-09-01T00:44:42.719Z,80.84
2017-09-01T00:47:10.318Z,80.88
2017-09-01T00:49:38.034Z,81.14
2017-09-01T00:52:05.654Z,81.34
2017-09-01T00:54:33.266Z,81.34
2017-09-01T00:57:00.861Z,81.32
2017-09-01T00:59:28.483Z,81.33
2017-09-01T01:01:56.092Z,81.37
2017-09-01T01:04:23.752Z,81.21
2017-09-01T01:06:51.371Z,81.32
2017-09-01T01:09:19.026Z,81.16
2017-09-01T01:11:46.615Z,81.30
2017-09-01T01:14:14.230Z,82.08
2017-09-01T01:16:41.830Z,81.83
2017-09-01T01:19:09.494Z,81.67
2017-09-01T01:21:37.086Z,82.01
2017-09-01T01:24:04.731Z,81.91
2017-09-01T01:26:32.293Z,81.70
2017-09-01T01:28:59.927Z,81.21
2017-09-01T01:31:27.515Z,81.34
2017-09-01T01:33:55.154Z,81.56
2017-09-01T01:36:22.732Z,81.41
2017-09-01T01:38:50.358Z,81.49
2017-09-01T01:41:17.982Z,81.87
2017-09-01T01:43:45.578Z,81.69
2017-09-01T01:46:13.243Z,81.60
2017-09-01T01:48:40.845Z,81.72
2017-09-01T01:51:08.486Z,81.75
2017-09-01T01:53:36.087Z,81.89
2017-09-01T01:56:03.707Z,82.01
2017-09-01T01:58:31.338Z,82.11
2017-09-01T02:00:58.958Z,82.50
2017-09-01T02:03:26.574Z,82.80
2017-09-01T02:05:54.220Z,82.69
2017-09-01T02:08:21.826Z,82.55
2017-09-01T02:10:49.463Z,82.30
2017-09-01T02:13:17.071Z,82.44
2017-09-01T02:15:44.679Z,82.92
2017-09-01T02:18:12.302Z,83.44
2017-09-01T02:20:39.967Z,83.26
2017-09-01T02:23:07.571Z,82.72
2017-09-01T02:25:35.244Z,82.75
2017-09-01T02:28:02.852Z,83.75
2017-09-01T02:30:30.451Z,84.18
2017-09-01T02:32:58.046Z,84.37
2017-09-01T02:35:25.686Z,84.67
2017-09-01T02:37:53.294Z,84.45
2017-09-01T02:40:20.917Z,84.33
2017-09-01T02:42:48.598Z,85.01
2017-09-01T02:45:16.175Z,85.36
2017-09-01T02:47:43.799Z,85.68
2017-09-01T02:50:11.382Z,84.92
2017-09-01T02:52:39.134Z,84.51
2017-09-01T02:55:06.749Z,84.21
2017-09-01T02:57:34.384Z,83.97
2017-09-01T03:00:02.036Z,82.98
2017-09-01T03:02:29.661Z,82.78
2017-09-01T03:04:57.255Z,82.99
2017-09-01T03:07:24.879Z,83.33
2017-09-01T03:09:52.475Z,84.03
2017-09-01T03:12:20.090Z,85.03
2017-09-01T03:14:47.694Z,85.27
2017-09-01T03:17:15.310Z,84.61
2017-09-01T03:19:42.898Z,84.89
2017-09-01T03:22:10.534Z,85.77
2017-09-01T03:24:38.122Z,86.82
2017-09-01T03:27:05.859Z,86.68
2017-09-01T03:29:33.458Z,86.87
2017-09-01T03:32:01.081Z,86.40
2017-09-01T03:34:28.667Z,86.20
2017-09-01T03:36:56.294Z,86.22
2017-09-01T03:39:23.900Z,85.38
2017-09-01T03:41:51.590Z,84.93
2017-09-01T03:44:19.226Z,83.91
2017-09-01T03:46:46.819Z,84.25
2017-09-01T03:49:14.454Z,84.37
2017-09-01T03:51:42.054Z,84.71
2017-09-01T03:54:09.727Z,85.18
2017-09-01T03:56:37.335Z,84.06
2017-09-01T03:59:04.958Z,84.08
2017-09-01T04:01:32.632Z,83.59
2017-09-01T04:04:00.267Z,83.71
2017-09-01T04:06:27.874Z,83.36
2017-09-01T04:08:55.515Z,82.91
2017-09-01T04:11:23.122Z,83.50
2017-09-01T04:13:50.747Z,84.34
2017-09-01T04:16:18.362Z,84.62
2017-09-01T04:18:45.954Z,84.98
2017-09-01T04:21:13.626Z,85.16
2017-09-01T04:23:41.298Z,85.46
2017-09-01T04:26:08.895Z,84.98
2017-09-01T04:28:36.553Z,83.96
2017-09-01T04:31:04.140Z,83.06
2017-09-01T04:33:31.809Z,83.69
2017-09-01T04:35:59.406Z,83.55
2017-09-01T04:38:27.099Z,83.39
2017-09-01T04:40:54.726Z,83.72
2017-09-01T04:43:22.335Z,84.15
2017-09-01T04:45:49.974Z,82.98
2017-09-01T04:48:17.679Z,83.52
2017-09-01T04:50:46.638Z,84.59
2017-09-01T04:53:14.418Z,85.44
2017-09-01T04:55:42.058Z,85.79
2017-09-01T04:58:09.673Z,85.96
2017-09-01T05:00:37.362Z,86.16
2017-09-01T05:03:04.967Z,86.16
2017-09-01T05:05:32.602Z,85.82
2017-09-01T05:08:00.262Z,85.05
2017-09-01T05:10:27.898Z,84.81
2017-09-01T05:12:55.527Z,84.64
2017-09-01T05:15:23.154Z,84.24
2017-09-01T05:17:50.759Z,84.14
2017-09-01T05:20:18.394Z,84.21
2017-09-01T05:22:45.997Z,84.81
2017-09-01T05:25:13.638Z,85.42
2017-09-01T05:27:41.232Z,85.79
2017-09-01T05:30:08.851Z,85.85
2017-09-01T05:32:36.474Z,85.69
2017-09-01T05:35:04.067Z,85.88
2017-09-01T05:37:31.686Z,86.10
2017-09-01T05:39:59.323Z,85.96
2017-09-01T05:42:26.931Z,85.59
2017-09-01T05:44:54.579Z,85.31
2017-09-01T05:47:22.174Z,84.94
2017-09-01T05:49:49.806Z,84.80
2017-09-01T05:52:17.418Z,84.46
2017-09-01T05:54:45.062Z,84.18
2017-09-01T05:57:12.671Z,84.00
2017-09-01T05:59:40.284Z,83.53
2017-09-01T06:02:07.887Z,83.68
2017-09-01T06:04:35.523Z,83.86
2017-09-01T06:07:03.115Z,83.79
2017-09-01T06:09:30.767Z,83.91
2017-09-01T06:11:58.364Z,84.51
2017-09-01T06:14:25.979Z,84.95
2017-09-01T06:16:53.646Z,84.86
2017-09-01T06:19:21.298Z,84.30
2017-09-01T06:21:48.910Z,83.57
2017-09-01T06:24:16.513Z,82.89
2017-09-01T06:26:44.134Z,83.06
2017-09-01T06:29:11.766Z,83.44
2017-09-01T06:31:39.398Z,83.75
2017-09-01T06:34:07.067Z,83.37
2017-09-01T06:36:34.724Z,83.18
2017-09-01T06:39:02.343Z,83.21
2017-09-01T06:41:29.988Z,82.58
2017-09-01T06:43:57.619Z,82.78
2017-09-01T06:46:25.294Z,83.36
2017-09-01T06:48:52.917Z,83.62
2017-09-01T06:51:20.560Z,83.47
2017-09-01T06:53:48.199Z,83.47
2017-09-01T06:56:15.863Z,83.18
2017-09-01T06:58:43.476Z,82.99
2017-09-01T07:01:11.244Z,83.03
2017-09-01T07:03:38.872Z,83.14
2017-09-01T07:06:06.600Z,83.47
2017-09-01T07:08:34.240Z,83.14
2017-09-01T07:11:01.911Z,82.88
2017-09-01T07:13:29.604Z,83.23
2017-09-01T07:15:57.647Z,83.27
2017-09-01T07:18:25.347Z,82.93
2017-09-01T07:20:53.071Z,83.46
2017-09-01T07:23:20.800Z,83.44
2017-09-01T07:25:48.479Z,83.16
2017-09-01T07:28:16.144Z,83.02
2017-09-01T07:30:43.779Z,82.71
2017-09-01T07:33:11.451Z,82.93
2017-09-01T07:35:39.093Z,82.47
2017-09-01T07:38:07.125Z,81.67
2017-09-01T07:40:34.755Z,81.69
2017-09-01T07:43:02.448Z,81.02
2017-09-01T07:45:30.077Z,80.81
2017-09-01T07:47:57.824Z,80.40
2017-09-01T07:50:25.456Z,80.17
2017-09-01T07:52:53.189Z,79.76
2017-09-01T07:55:20.853Z,79.68
2017-09-01T07:57:48.608Z,78.59
2017-09-01T08:00:16.289Z,78.52
2017-09-01T08:02:44.139Z,78.65
2017-09-01T08:05:11.872Z,78.10
2017-09-01T08:07:39.579Z,78.18
2017-09-01T08:10:07.215Z,77.80
2017-09-01T08:12:35.622Z,76.89
2017-09-01T08:15:03.333Z,76.45
2017-09-01T08:17:31.063Z,76.10
2017-09-01T08:19:58.712Z,75.95
2017-09-01T08:22:26.359Z,75.75
2017-09-01T08:24:54.036Z,75.50
2017-09-01T08:27:21.671Z,74.79
2017-09-01T08:29:49.307Z,73.48
2017-09-01T08:32:16.898Z,72.80
2017-09-01T08:34:44.638Z,73.43
2017-09-01T08:37:12.240Z,73.60
2017-09-01T08:39:39.914Z,73.59
2017-09-01T08:42:07.587Z,73.58
2017-09-01T08:44:35.203Z,73.14
2017-09-01T08:47:02.843Z,73.05
2017-09-01T08:49:30.448Z,72.70
2017-09-01T08:51:58.093Z,72.97
2017-09-01T08:54:25.815Z,72.63
2017-09-01T08:56:53.464Z,73.49
2017-09-01T08:59:21.071Z,73.49
2017-09-01T09:01:48.707Z,73.12
2017-09-01T09:04:16.337Z,73.12
2017-09-01T09:06:44.330Z,72.84
2017-09-01T09:09:11.938Z,72.09
2017-09-01T09:11:39.550Z,71.36
2017-09-01T09:14:08.958Z,71.15
2017-09-01T09:16:36.559Z,71.05
2017-09-01T09:19:04.207Z,70.76
2017-09-01T09:21:31.808Z,70.41
2017-09-01T09:23:59.446Z,70.97
2017-09-01T09:26:27.065Z,70.66
2017-09-01T09:28:54.713Z,70.73
2017-09-01T09:31:22.331Z,70.97
2017-09-01T09:33:49.995Z,71.07
2017-09-01T09:36:17.596Z,70.62
2017-09-01T09:38:45.337Z,70.28
2017-09-01T09:41:12.976Z,69.04
2017-09-01T09:43:40.586Z,69.28
2017-09-01T09:46:08.240Z,69.02
2017-09-01T09:48:35.883Z,67.69
2017-09-01T09:51:03.522Z,67.02
2017-09-01T09:53:31.134Z,66.60
2017-09-01T09:55:58.814Z,66.05
2017-09-01T09:58:26.431Z,65.40
2017-09-01T10:00:54.070Z,65.67
2017-09-01T10:03:21.682Z,64.97
2017-09-01T10:05:49.322Z,64.21
2017-09-01T10:08:16.911Z,63.17
2017-09-01T10:10:44.570Z,63.23
2017-09-01T10:13:12.204Z,62.29
2017-09-01T10:15:40.233Z,61.30
2017-09-01T10:18:07.835Z,60.90
2017-09-01T10:20:35.455Z,60.48
2017-09-01T10:23:03.087Z,60.82
2017-09-01T10:25:30.671Z,62.17
2017-09-01T10:27:58.394Z,62.56
2017-09-01T10:30:25.981Z,63.64
2017-09-01T10:32:53.727Z,62.13
2017-09-01T10:35:21.336Z,63.12
2017-09-01T10:37:48.991Z,63.27
2017-09-01T10:40:16.590Z,63.06
2017-09-01T10:42:44.323Z,62.13
2017-09-01T10:45:11.931Z,63.00
2017-09-01T10:47:51.071Z,60.99
2017-09-01T10:50:30.325Z,60.47
2017-09-01T10:53:09.911Z,59.62
2017-09-01T10:55:49.136Z,59.11
2017-09-01T10:58:21.666Z,59.36
2017-09-01T11:00:49.281Z,60.13
2017-09-01T11:03:16.885Z,60.55
2017-09-01T11:05:44.551Z,61.34
2017-09-01T11:08:12.176Z,62.03
2017-09-01T11:10:39.834Z,62.72
2017-09-01T11:13:07.443Z,62.09
2017-09-01T11:15:35.084Z,62.10
2017-09-01T11:18:02.716Z,62.40
2017-09-01T11:20:35.758Z,61.54
2017-09-01T11:23:09.054Z,62.50
2017-09-01T11:25:36.753Z,62.70
2017-09-01T11:28:04.374Z,62.69
2017-09-01T11:30:31.990Z,62.05
2017-09-01T11:32:59.628Z,59.55
2017-09-01T11:35:27.211Z,55.81
2017-09-01T11:37:54.886Z,54.94
2017-09-01T11:40:22.563Z,55.10
2017-09-01T11:42:50.182Z,54.88
2017-09-01T11:45:17.891Z,53.87
2017-09-01T11:47:45.523Z,54.07
2017-09-01T11:50:13.104Z,50.24
2017-09-01T11:52:40.749Z,50.48
2017-09-01T11:55:08.355Z,51.75
2017-09-01T11:57:35.970Z,50.46
2017-09-01T12:00:03.588Z,50.47
2017-09-01T12:02:31.210Z,48.28
2017-09-01T12:04:58.799Z,47.86
2017-09-01T12:07:26.435Z,47.02
2017-09-01T12:09:54.048Z,46.72
2017-09-01T12:12:21.803Z,47.51
2017-09-01T12:14:49.419Z,48.65
2017-09-01T12:17:17.066Z,51.23
2017-09-01T12:19:44.691Z,52.83
2017-09-01T12:22:12.371Z,51.96
2017-09-01T12:24:39.999Z,51.88
2017-09-01T12:27:07.607Z,51.19
2017-09-01T12:29:35.245Z,51.38
2017-09-01T12:32:02.870Z,52.45
2017-09-01T12:34:30.575Z,53.65
2017-09-01T12:36:58.188Z,52.98
2017-09-01T12:39:25.918Z,51.45
2017-09-01T12:41:53.507Z,48.62
2017-09-01T12:44:21.100Z,45.58
2017-09-01T12:46:48.743Z,44.69
2017-09-01T12:49:16.343Z,44.69
2017-09-01T12:51:43.986Z,45.51
2017-09-01T12:54:11.545Z,45.93
2017-09-01T12:56:39.166Z,43.47
2017-09-01T12:59:06.761Z,42.90
2017-09-01T13:01:34.395Z,43.33
2017-09-01T13:04:01.994Z,44.41
2017-09-01T13:06:29.622Z,43.19
2017-09-01T13:08:57.207Z,44.63
2017-09-01T13:11:24.841Z,46.47
2017-09-01T13:13:52.440Z,46.38
2017-09-01T13:16:20.066Z,45.94
2017-09-01T13:18:47.805Z,46.64
2017-09-01T13:21:15.404Z,46.78
2017-09-01T13:23:43.027Z,46.30
2017-09-01T13:26:10.653Z,45.25
2017-09-01T13:28:38.302Z,46.70
2017-09-01T13:31:05.890Z,47.03
2017-09-01T13:33:33.675Z,48.27
2017-09-01T13:36:01.303Z,48.28
2017-09-01T13:38:28.896Z,49.05
2017-09-01T13:40:56.546Z,49.23
2017-09-01T13:43:24.139Z,49.49
2017-09-01T13:45:51.882Z,49.64
2017-09-01T13:48:19.490Z,49.94
2017-09-01T13:50:47.082Z,49.06
2017-09-01T13:53:14.718Z,49.89
2017-09-01T13:55:42.327Z,49.81
2017-09-01T13:58:09.996Z,47.34
2017-09-01T14:00:37.623Z,46.94
2017-09-01T14:03:05.257Z,46.88
2017-09-01T14:05:32.850Z,45.28
2017-09-01T14:08:00.483Z,46.71
2017-09-01T14:10:28.083Z,47.10
2017-09-01T14:12:55.836Z,47.18
2017-09-01T14:15:23.424Z,47.58
2017-09-01T14:17:51.098Z,45.91
2017-09-01T14:20:18.736Z,46.13
2017-09-01T14:22:46.322Z,45.93
2017-09-01T14:25:13.964Z,46.02
2017-09-01T14:27:41.566Z,43.84
2017-09-01T14:30:09.209Z,40.46
2017-09-01T14:32:36.815Z,39.76
2017-09-01T14:35:04.465Z,39.22
2017-09-01T14:37:32.154Z,40.91
2017-09-01T14:39:59.797Z,41.37
2017-09-01T14:42:27.387Z,41.11
2017-09-01T14:44:55.135Z,40.59
2017-09-01T14:47:22.743Z,42.04
2017-09-01T14:49:50.345Z,49.16
2017-09-01T14:52:18.022Z,50.54
2017-09-01T14:54:45.629Z,50.88
2017-09-01T14:57:13.270Z,51.88
2017-09-01T14:59:40.899Z,53.49
2017-09-01T15:02:08.535Z,54.21
2017-09-01T15:04:36.119Z,54.00
2017-09-01T15:07:03.868Z,54.29
2017-09-01T15:09:31.471Z,54.62
2017-09-01T15:11:59.062Z,53.37
2017-09-01T15:14:26.700Z,53.44
2017-09-01T15:16:54.296Z,54.27
2017-09-01T15:19:21.939Z,54.37
2017-09-01T15:21:49.556Z,54.42
2017-09-01T15:24:17.183Z,53.36
2017-09-01T15:26:44.801Z,52.54
2017-09-01T15:29:12.445Z,50.93
2017-09-01T15:31:40.027Z,50.65
2017-09-01T15:34:07.671Z,53.64
2017-09-01T15:36:35.291Z,53.65
2017-09-01T15:39:02.938Z,52.61
2017-09-01T15:41:30.577Z,52.82
2017-09-01T15:43:58.243Z,54.33
2017-09-01T15:46:25.873Z,56.75
2017-09-01T15:48:53.476Z,55.54
2017-09-01T15:51:21.147Z,56.26
2017-09-01T15:53:48.740Z,58.17
2017-09-01T15:56:16.376Z,57.90
2017-09-01T15:58:43.962Z,56.05
2017-09-01T16:01:11.603Z,57.72
2017-09-01T16:03:39.291Z,60.21
2017-09-01T16:06:07.090Z,56.79
2017-09-01T16:08:34.731Z,57.83
2017-09-01T16:11:02.342Z,59.74
2017-09-01T16:13:29.971Z,59.42
2017-09-01T16:15:57.617Z,59.67
2017-09-01T16:18:25.259Z,60.18
2017-09-01T16:20:52.867Z,60.34
2017-09-01T16:23:20.511Z,60.70
2017-09-01T16:25:48.111Z,61.25
2017-09-01T16:28:15.975Z,59.96
2017-09-01T16:30:43.671Z,62.02
2017-09-01T16:33:11.326Z,61.79
2017-09-01T16:35:38.971Z,62.22
2017-09-01T16:38:06.558Z,61.26
2017-09-01T16:40:34.227Z,59.67
2017-09-01T16:43:01.840Z,59.74
2017-09-01T16:45:29.756Z,59.39
2017-09-01T16:47:57.388Z,59.03
2017-09-01T16:50:24.989Z,59.08
2017-09-01T16:52:52.642Z,59.24
2017-09-01T16:55:20.251Z,59.07
2017-09-01T16:57:47.931Z,58.77
2017-09-01T17:00:15.558Z,61.48
2017-09-01T17:02:43.211Z,58.76
2017-09-01T17:05:10.818Z,59.56
2017-09-01T17:07:38.480Z,58.53
2017-09-01T17:10:06.115Z,59.72
2017-09-01T17:12:33.716Z,59.87
2017-09-01T17:15:01.347Z,60.83
2017-09-01T17:17:28.978Z,60.20
2017-09-01T17:19:56.616Z,60.89
2017-09-01T17:22:24.235Z,61.05
2017-09-01T17:24:51.930Z,59.95
2017-09-01T17:27:19.530Z,61.04
2017-09-01T17:29:47.182Z,61.96
2017-09-01T17:32:14.819Z,61.62
2017-09-01T17:34:42.739Z,60.87
2017-09-01T17:37:10.355Z,60.21
2017-09-01T17:39:37.946Z,60.66
2017-09-01T17:42:05.596Z,59.88
2017-09-01T17:44:33.196Z,60.42
2017-09-01T17:47:00.838Z,59.87
2017-09-01T17:49:28.627Z,59.32
2017-09-01T17:51:56.284Z,59.71
2017-09-01T17:54:23.890Z,60.14
2017-09-01T17:56:51.517Z,59.89
2017-09-01T17:59:19.117Z,60.69
2017-09-01T18:01:47.151Z,61.65
2017-09-01T18:04:14.770Z,60.89
2017-09-01T18:06:42.375Z,60.86
2017-09-01T18:09:10.027Z,60.65
2017-09-01T18:11:37.627Z,60.59
2017-09-01T18:14:05.268Z,60.79
2017-09-01T18:16:32.870Z,61.07
2017-09-01T18:19:00.517Z,60.55
2017-09-01T18:21:28.130Z,60.78
2017-09-01T18:23:55.898Z,59.94
2017-09-01T18:26:23.490Z,60.03
2017-09-01T18:28:51.091Z,59.54
2017-09-01T18:31:18.734Z,59.19
2017-09-01T18:33:46.404Z,61.66
2017-09-01T18:36:14.064Z,63.19
2017-09-01T18:38:41.770Z,64.27
2017-09-01T18:41:09.431Z,64.48
2017-09-01T18:43:37.037Z,64.50
2017-09-01T18:46:04.703Z,64.36
2017-09-01T18:48:32.299Z,64.25
2017-09-01T18:51:00.660Z,63.99
2017-09-01T18:53:28.309Z,63.89
2017-09-01T18:55:55.958Z,64.95
2017-09-01T18:58:23.562Z,66.01
2017-09-01T19:00:51.194Z,66.46
2017-09-01T19:03:18.794Z,67.15
2017-09-01T19:05:46.418Z,68.28
2017-09-01T19:08:14.077Z,69.12
2017-09-01T19:10:41.682Z,70.43
2017-09-01T19:13:09.331Z,72.10
2017-09-01T19:15:36.942Z,72.88
2017-09-01T19:18:04.591Z,72.91
2017-09-01T19:20:32.219Z,73.49
2017-09-01T19:22:59.877Z,74.89
2017-09-01T19:25:27.499Z,75.24
2017-09-01T19:27:55.250Z,76.93
2017-09-01T19:30:22.846Z,78.85
2017-09-01T19:32:50.661Z,80.95
2017-09-01T19:35:18.332Z,80.35
2017-09-01T19:37:45.985Z,80.60
2017-09-01T19:40:13.595Z,79.27
2017-09-01T19:42:41.588Z,79.54
2017-09-01T19:45:09.294Z,78.61
2017-09-01T19:47:36.954Z,80.46
2017-09-01T19:50:04.627Z,77.91
2017-09-01T19:52:32.235Z,78.94
2017-09-01T19:54:59.862Z,78.64
2017-09-01T19:57:27.511Z,79.33
2017-09-01T19:59:55.369Z,77.37
2017-09-01T20:02:23.156Z,77.63
2017-09-01T20:04:50.872Z,79.68
2017-09-01T20:07:18.489Z,79.39
2017-09-01T20:09:46.132Z,79.50
2017-09-01T20:12:13.744Z,81.13
2017-09-01T20:14:41.385Z,79.94
2017-09-01T20:17:09.016Z,80.51
2017-09-01T20:19:36.652Z,81.38
2017-09-01T20:22:04.275Z,81.20
2017-09-01T20:24:31.936Z,80.95
2017-09-01T20:26:59.539Z,79.90
2017-09-01T20:29:27.203Z,80.10
2017-09-01T20:31:54.813Z,80.16
2017-09-01T20:34:22.479Z,79.99
2017-09-01T20:36:50.098Z,79.41
2017-09-01T20:39:17.783Z,78.93
2017-09-01T20:41:45.382Z,78.56
2017-09-01T20:44:12.987Z,79.33
2017-09-01T20:46:40.626Z,79.16
2017-09-01T20:49:08.295Z,78.05
2017-09-01T20:51:35.924Z,78.76
2017-09-01T20:54:03.530Z,78.07
2017-09-01T20:56:31.182Z,77.82
2017-09-01T20:58:58.836Z,79.73
2017-09-01T21:01:26.478Z,80.90
2017-09-01T21:03:54.169Z,80.59
2017-09-01T21:06:21.804Z,80.67
2017-09-01T21:08:49.463Z,80.87
2017-09-01T21:11:17.092Z,81.03
2017-09-01T21:13:44.695Z,80.97
2017-09-01T21:16:12.342Z,81.24
2017-09-01T21:18:39.940Z,81.21
2017-09-01T21:21:07.586Z,80.60
2017-09-01T21:23:35.293Z,80.48
2017-09-01T21:26:02.901Z,80.75
2017-09-01T21:28:30.548Z,81.16
2017-09-01T21:30:58.150Z,80.51
2017-09-01T21:33:25.818Z,81.16
2017-09-01T21:35:53.507Z,82.37
2017-09-01T21:38:21.201Z,82.69
2017-09-01T21:40:49.003Z,83.64
2017-09-01T21:43:16.687Z,84.42
2017-09-01T21:45:44.380Z,83.63
2017-09-01T21:48:12.036Z,83.53
2017-09-01T21:50:39.755Z,83.24
2017-09-01T21:53:07.527Z,83.52
2017-09-01T21:55:35.311Z,82.88
2017-09-01T21:58:03.008Z,82.06
2017-09-01T22:00:30.686Z,81.71
2017-09-01T22:02:58.355Z,81.41
2017-09-01T22:05:26.047Z,81.33
2017-09-01T22:07:53.739Z,81.46
2017-09-01T22:10:21.357Z,81.48
2017-09-01T22:12:49.094Z,81.21
2017-09-01T22:15:16.884Z,80.97
2017-09-01T22:17:44.751Z,81.61
2017-09-01T22:20:12.453Z,82.40
2017-09-01T22:22:40.208Z,83.03
2017-09-01T22:25:07.980Z,83.27
2017-09-01T22:27:35.618Z,82.26
2017-09-01T22:30:03.230Z,82.47
2017-09-01T22:32:30.917Z,82.40
2017-09-01T22:34:58.508Z,83.40
2017-09-01T22:37:26.163Z,83.04
2017-09-01T22:39:53.787Z,82.83
2017-09-01T22:42:21.406Z,82.68
2017-09-01T22:44:49.043Z,82.15
2017-09-01T22:47:16.656Z,81.91
2017-09-01T22:49:44.392Z,81.87
2017-09-01T22:52:11.987Z,81.33
2017-09-01T22:54:39.617Z,80.91
2017-09-01T22:57:07.223Z,81.75
2017-09-01T22:59:34.851Z,81.95
2017-09-01T23:02:02.477Z,82.14
2017-09-01T23:04:30.118Z,82.24
2017-09-01T23:06:57.736Z,82.78
2017-09-01T23:09:25.350Z,82.61
2017-09-01T23:11:52.952Z,82.95
2017-09-01T23:14:20.566Z,83.20
2017-09-01T23:16:48.166Z,83.79
2017-09-01T23:19:15.808Z,83.14
2017-09-01T23:21:43.415Z,83.76
2017-09-01T23:24:11.055Z,84.23
2017-09-01T23:26:38.761Z,84.60
2017-09-01T23:29:06.645Z,84.89
2017-09-01T23:31:34.278Z,85.02
2017-09-01T23:34:01.886Z,84.98
2017-09-01T23:36:29.531Z,84.86
2017-09-01T23:38:57.130Z,84.71
2017-09-01T23:41:24.787Z,84.67
2017-09-01T23:43:52.367Z,84.32
2017-09-01T23:46:20.030Z,84.34
2017-09-01T23:48:47.626Z,85.20
2017-09-01T23:51:15.262Z,85.83
2017-09-01T23:53:42.878Z,85.92
2017-09-01T23:56:10.522Z,86.10
2017-09-01T23:58:38.228Z,86.23
